Time;durP1;ratioP1;P1;durP2;ratioP2;P2;SDS_P1;SDS_P2;PMS_P1;PMS_P2;Temp;Humidity;BMP_temperature;BMP_pressure;BME280_temperature;BME280_humidity;BME280_pressure;Samples;Min_cycle;Max_cycle;Signal;HPM_P1;HPM_P2
2022/03/05 00:00:08;;;;;;;;;;;2.90;57.90;;;;;;8411567;28;19925;-72
2022/03/05 00:04:11;;;;;;;;;;;2.80;57.80;;;;;;8399779;28;19955;-72
2022/03/05 00:08:13;;;;;;;;;;;2.70;57.70;;;;;;8415425;28;19924;-72
2022/03/05 00:12:14;;;;;;;;;;;2.70;58.30;;;;;;8398012;28;19929;-72
2022/03/05 00:16:16;;;;;;;;;;;2.60;59.10;;;;;;8395377;28;19931;-72
2022/03/05 00:20:18;;;;;;;;;;;2.50;59.00;;;;;;8412846;28;19925;-72
2022/03/05 00:24:20;;;;;;;;;;;2.50;59.50;;;;;;8416816;28;19932;-72
2022/03/05 00:28:22;;;;;;;;;;;2.50;58.90;;;;;;8413011;28;19924;-72
2022/03/05 00:32:23;;;;;;;;;;;2.40;59.40;;;;;;8418212;28;19931;-72
2022/03/05 00:36:25;;;;;;;;;;;2.40;59.10;;;;;;8412375;28;20404;-72
2022/03/05 00:40:27;;;;;;;;;;;2.30;59.40;;;;;;8406152;28;20383;-72
2022/03/05 00:44:28;;;;;;;;;;;2.20;58.90;;;;;;8396399;28;20828;-72
2022/03/05 00:48:30;;;;;;;;;;;2.20;59.00;;;;;;8396508;28;19986;-72
2022/03/05 00:52:32;;;;;;;;;;;2.10;59.20;;;;;;8411423;28;20324;-73
2022/03/05 00:56:34;;;;;;;;;;;2.10;58.70;;;;;;8400250;28;19924;-72
2022/03/05 01:00:37;;;;;;;;;;;2.10;59.50;;;;;;8411479;28;19932;-72
2022/03/05 01:04:39;;;;;;;;;;;2.00;59.40;;;;;;8420514;28;19931;-72
2022/03/05 01:08:41;;;;;;;;;;;2.00;59.10;;;;;;8416060;28;20351;-72
2022/03/05 01:12:43;;;;;;;;;;;1.90;59.00;;;;;;8409987;28;19981;-72
2022/03/05 01:16:44;;;;;;;;;;;1.80;59.40;;;;;;8414415;28;19931;-72
2022/03/05 01:20:46;;;;;;;;;;;1.80;59.30;;;;;;8403647;28;20364;-72
2022/03/05 01:24:47;;;;;;;;;;;1.70;59.00;;;;;;8414854;28;19924;-72
2022/03/05 01:28:50;;;;;;;;;;;1.70;58.90;;;;;;8415749;28;19997;-72
2022/03/05 01:32:51;;;;;;;;;;;1.70;59.30;;;;;;8402555;28;19928;-72
2022/03/05 01:36:53;;;;;;;;;;;1.60;59.00;;;;;;8406284;28;19924;-72
2022/03/05 01:40:55;;;;;;;;;;;1.60;59.40;;;;;;8396006;28;19924;-72
2022/03/05 01:44:56;;;;;;;;;;;1.50;59.40;;;;;;8411089;28;19936;-72
2022/03/05 01:48:58;;;;;;;;;;;1.40;59.80;;;;;;8389729;28;19924;-71
2022/03/05 01:53:00;;;;;;;;;;;1.40;59.50;;;;;;8411350;28;19925;-72
2022/03/05 01:57:02;;;;;;;;;;;1.40;58.90;;;;;;8409175;28;19924;-72
2022/03/05 02:01:04;;;;;;;;;;;1.30;59.20;;;;;;8417653;28;20390;-72
2022/03/05 02:05:06;;;;;;;;;;;1.30;59.40;;;;;;8401987;28;19924;-72
2022/03/05 02:09:08;;;;;;;;;;;1.30;58.80;;;;;;8389727;28;19924;-72
2022/03/05 02:13:10;;;;;;;;;;;1.20;58.60;;;;;;8422306;28;20011;-72
2022/03/05 02:17:11;;;;;;;;;;;1.10;58.40;;;;;;8429347;28;19931;-72
2022/03/05 02:21:14;;;;;;;;;;;1.00;58.60;;;;;;8420914;28;19930;-72
2022/03/05 02:25:16;;;;;;;;;;;0.90;58.20;;;;;;8418328;28;19940;-72
2022/03/05 02:29:17;;;;;;;;;;;0.90;58.00;;;;;;8399140;28;19935;-72
2022/03/05 02:33:19;;;;;;;;;;;0.90;58.10;;;;;;8425222;28;19924;-72
2022/03/05 02:37:21;;;;;;;;;;;0.90;58.00;;;;;;8414289;28;19935;-72
2022/03/05 02:41:24;;;;;;;;;;;0.90;58.20;;;;;;8421414;28;19924;-72
2022/03/05 02:45:25;;;;;;;;;;;0.90;57.80;;;;;;8417377;28;19931;-72
2022/03/05 02:49:27;;;;;;;;;;;0.90;58.00;;;;;;8418464;28;19969;-72
2022/03/05 02:53:31;;;;;;;;;;;0.80;57.80;;;;;;8399175;28;19924;-72
2022/03/05 02:57:32;;;;;;;;;;;0.70;57.70;;;;;;8419423;28;19936;-71
2022/03/05 03:01:34;;;;;;;;;;;0.70;57.70;;;;;;8408873;28;19935;-72
2022/03/05 03:05:36;;;;;;;;;;;0.70;57.70;;;;;;8413674;28;20302;-72
2022/03/05 03:09:37;;;;;;;;;;;0.60;57.60;;;;;;8421329;28;19939;-72
2022/03/05 03:13:39;;;;;;;;;;;0.60;57.70;;;;;;8417927;28;19924;-72
2022/03/05 03:17:45;;;;;;;;;;;0.50;57.80;;;;;;8416938;28;19928;-72
2022/03/05 03:21:46;;;;;;;;;;;0.50;57.90;;;;;;8413557;28;19924;-72
2022/03/05 03:25:48;;;;;;;;;;;0.40;57.80;;;;;;8408505;28;19924;-72
2022/03/05 03:29:50;;;;;;;;;;;0.30;58.00;;;;;;8422628;28;19924;-72
2022/03/05 03:33:51;;;;;;;;;;;0.20;57.70;;;;;;8418099;28;19946;-72
2022/03/05 03:37:53;;;;;;;;;;;0.20;58.00;;;;;;8396347;28;19979;-72
2022/03/05 03:41:55;;;;;;;;;;;0.10;57.90;;;;;;8404792;28;19924;-71
2022/03/05 03:45:57;;;;;;;;;;;0.10;58.10;;;;;;8415939;28;19929;-72
2022/03/05 03:49:58;;;;;;;;;;;0.10;58.40;;;;;;8416825;28;19925;-72
2022/03/05 03:54:00;;;;;;;;;;;0.10;57.80;;;;;;8391322;28;19931;-72
2022/03/05 03:58:01;;;;;;;;;;;0.00;57.90;;;;;;8390495;28;20269;-72
2022/03/05 04:02:03;;;;;;;;;;;0.00;58.10;;;;;;8408382;28;19935;-72
2022/03/05 04:06:05;;;;;;;;;;;0.00;57.90;;;;;;8409104;28;19976;-72
2022/03/05 04:10:07;;;;;;;;;;;-0.10;57.90;;;;;;8408896;28;19924;-72
2022/03/05 04:14:09;;;;;;;;;;;-0.20;59.00;;;;;;8412269;28;20368;-72
2022/03/05 04:18:10;;;;;;;;;;;-0.30;59.20;;;;;;8409452;28;20304;-72
2022/03/05 04:22:12;;;;;;;;;;;-0.30;58.50;;;;;;8411759;28;20328;-72
2022/03/05 04:26:13;;;;;;;;;;;-0.40;58.40;;;;;;8412157;28;19924;-71
2022/03/05 04:30:15;;;;;;;;;;;-0.50;58.40;;;;;;8419262;28;20028;-72
2022/03/05 04:34:17;;;;;;;;;;;-0.50;59.30;;;;;;8420165;28;19931;-72
2022/03/05 04:38:19;;;;;;;;;;;-0.50;58.90;;;;;;8412603;28;19924;-71
2022/03/05 04:42:20;;;;;;;;;;;-0.50;58.60;;;;;;8400604;28;19954;-71
2022/03/05 04:46:22;;;;;;;;;;;-0.60;59.70;;;;;;8409406;28;19928;-72
2022/03/05 04:50:24;;;;;;;;;;;-0.60;58.90;;;;;;8397829;28;19924;-72
2022/03/05 04:54:29;;;;;;;;;;;-0.60;59.00;;;;;;8412809;28;19932;-72
2022/03/05 04:58:31;;;;;;;;;;;-0.60;59.40;;;;;;8413714;28;19932;-72
2022/03/05 05:02:33;;;;;;;;;;;-0.60;59.80;;;;;;8390801;28;19928;-72
2022/03/05 05:06:35;;;;;;;;;;;-0.70;59.60;;;;;;8393113;28;20379;-72
2022/03/05 05:10:37;;;;;;;;;;;-0.70;60.40;;;;;;8393674;28;19974;-72
2022/03/05 05:14:38;;;;;;;;;;;-0.70;60.60;;;;;;8413817;28;19943;-72
2022/03/05 05:19:24;;;;;;;;;;;-0.70;61.40;;;;;;8400933;28;20456;-71
2022/03/05 05:23:05;;;;;;;;;;;-0.70;61.30;;;;;;8409653;28;20303;-72
2022/03/05 05:27:07;;;;;;;;;;;-0.70;62.40;;;;;;8409045;28;20377;-72
2022/03/05 05:31:08;;;;;;;;;;;-0.70;62.00;;;;;;8401042;28;19931;-72
2022/03/05 05:35:10;;;;;;;;;;;-0.70;62.00;;;;;;8392489;28;19932;-72
2022/03/05 05:39:12;;;;;;;;;;;-0.70;62.10;;;;;;8396924;28;19928;-72
2022/03/05 05:43:14;;;;;;;;;;;-0.70;61.60;;;;;;8419145;28;20228;-72
2022/03/05 05:47:15;;;;;;;;;;;-0.70;62.80;;;;;;8408824;28;20320;-72
2022/03/05 05:51:17;;;;;;;;;;;-0.70;62.60;;;;;;8411278;28;19928;-71
2022/03/05 05:55:18;;;;;;;;;;;-0.80;62.10;;;;;;8417558;28;19978;-72
2022/03/05 05:59:20;;;;;;;;;;;-0.80;62.20;;;;;;8418011;28;19925;-72
2022/03/05 06:03:22;;;;;;;;;;;-0.80;62.10;;;;;;8419097;28;19939;-72
2022/03/05 06:07:23;;;;;;;;;;;-0.80;61.70;;;;;;8419394;28;19931;-71
2022/03/05 06:11:25;;;;;;;;;;;-0.80;62.20;;;;;;8395698;28;19959;-71
2022/03/05 06:15:27;;;;;;;;;;;-0.90;62.90;;;;;;8401345;28;19925;-72
2022/03/05 06:19:28;;;;;;;;;;;-0.80;62.30;;;;;;8386598;28;19924;-72
2022/03/05 06:23:30;;;;;;;;;;;-0.90;62.70;;;;;;8415129;28;19936;-71
2022/03/05 06:27:32;;;;;;;;;;;-0.90;62.70;;;;;;8406382;28;19928;-72
2022/03/05 06:31:34;;;;;;;;;;;-0.80;62.50;;;;;;8411184;28;19928;-72
2022/03/05 06:35:36;;;;;;;;;;;-0.80;62.60;;;;;;8406347;28;20303;-72
2022/03/05 06:39:37;;;;;;;;;;;-0.80;62.60;;;;;;8393883;28;20391;-72
2022/03/05 06:43:40;;;;;;;;;;;-0.80;62.10;;;;;;8409562;28;19924;-71
2022/03/05 06:47:41;;;;;;;;;;;-0.80;62.70;;;;;;8414421;28;19924;-71
2022/03/05 06:51:43;;;;;;;;;;;-0.70;62.60;;;;;;8405086;28;19929;-72
2022/03/05 06:55:45;;;;;;;;;;;-0.70;63.60;;;;;;8406222;28;19926;-72
2022/03/05 06:59:46;;;;;;;;;;;-0.60;63.20;;;;;;8412604;28;19924;-72
2022/03/05 07:03:48;;;;;;;;;;;-0.50;63.20;;;;;;8408241;28;20380;-72
2022/03/05 07:07:49;;;;;;;;;;;-0.50;63.40;;;;;;8406274;28;19932;-71
2022/03/05 07:11:51;;;;;;;;;;;-0.30;64.20;;;;;;8415805;28;19931;-71
2022/03/05 07:15:53;;;;;;;;;;;-0.20;64.20;;;;;;8412615;28;19935;-72
2022/03/05 07:19:55;;;;;;;;;;;0.00;64.30;;;;;;8417176;28;20375;-72
2022/03/05 07:23:58;;;;;;;;;;;0.10;63.70;;;;;;8394287;28;19956;-71
2022/03/05 07:28:00;;;;;;;;;;;0.20;64.50;;;;;;8397660;28;19932;-71
2022/03/05 07:32:03;;;;;;;;;;;0.40;64.70;;;;;;8416041;28;19947;-71
2022/03/05 07:36:05;;;;;;;;;;;0.50;65.20;;;;;;8408062;28;19924;-72
2022/03/05 07:40:07;;;;;;;;;;;0.70;65.40;;;;;;8408437;28;19924;-72
2022/03/05 07:44:09;;;;;;;;;;;0.80;65.20;;;;;;8402978;28;19924;-72
2022/03/05 07:48:10;;;;;;;;;;;1.00;65.40;;;;;;8414871;28;19954;-72
2022/03/05 07:52:12;;;;;;;;;;;1.20;65.80;;;;;;8403807;28;19940;-72
2022/03/05 07:56:14;;;;;;;;;;;1.30;66.20;;;;;;8416141;28;19924;-72
2022/03/05 08:00:15;;;;;;;;;;;1.50;66.40;;;;;;8406529;28;20305;-72
2022/03/05 08:04:22;;;;;;;;;;;1.60;66.50;;;;;;8407207;28;20368;-72
2022/03/05 08:08:24;;;;;;;;;;;1.80;67.00;;;;;;8410051;28;19940;-72
2022/03/05 08:12:25;;;;;;;;;;;1.90;67.80;;;;;;8389072;28;20449;-72
2022/03/05 08:16:27;;;;;;;;;;;2.00;67.50;;;;;;8405412;28;19925;-72
2022/03/05 08:20:30;;;;;;;;;;;2.10;68.10;;;;;;8403176;28;19931;-72
2022/03/05 08:24:32;;;;;;;;;;;2.30;68.30;;;;;;8389699;28;19924;-71
2022/03/05 08:28:34;;;;;;;;;;;2.40;68.40;;;;;;8405976;28;19928;-73
2022/03/05 08:32:35;;;;;;;;;;;2.50;68.80;;;;;;8407710;28;19924;-73
2022/03/05 08:36:37;;;;;;;;;;;2.70;70.20;;;;;;8385771;28;19932;-73
2022/03/05 08:40:40;;;;;;;;;;;2.70;71.90;;;;;;8407265;28;19923;-73
2022/03/05 08:44:41;;;;;;;;;;;2.80;72.10;;;;;;8406237;28;19924;-73
2022/03/05 08:48:43;;;;;;;;;;;2.90;73.00;;;;;;8388382;28;19924;-73
2022/03/05 08:52:48;;;;;;;;;;;3.00;70.70;;;;;;8402603;28;19979;-73
2022/03/05 08:56:50;;;;;;;;;;;3.20;72.50;;;;;;8403808;28;22458;-73
2022/03/05 09:00:52;;;;;;;;;;;3.30;72.90;;;;;;8409917;28;19931;-73
2022/03/05 09:04:53;;;;;;;;;;;3.50;71.50;;;;;;8409258;28;20041;-73
2022/03/05 09:08:55;;;;;;;;;;;3.70;71.70;;;;;;8408466;28;20318;-73
2022/03/05 09:12:57;;;;;;;;;;;3.90;71.50;;;;;;8400025;28;19928;-73
2022/03/05 09:16:58;;;;;;;;;;;4.10;72.10;;;;;;8413810;28;19931;-73
2022/03/05 09:21:00;;;;;;;;;;;4.30;72.00;;;;;;8410183;28;19924;-73
2022/03/05 09:25:09;;;;;;;;;;;4.40;71.40;;;;;;8402268;28;19947;-73
2022/03/05 09:29:10;;;;;;;;;;;4.70;71.70;;;;;;8400701;28;19932;-73
2022/03/05 09:33:12;;;;;;;;;;;4.80;72.20;;;;;;8411593;28;19935;-73
2022/03/05 09:37:14;;;;;;;;;;;4.90;72.00;;;;;;8394512;28;19959;-73
2022/03/05 09:41:15;;;;;;;;;;;5.00;73.20;;;;;;8404957;28;20391;-73
2022/03/05 09:45:17;;;;;;;;;;;5.00;72.90;;;;;;8405008;28;19954;-73
2022/03/05 09:49:19;;;;;;;;;;;5.10;72.10;;;;;;8383822;28;20422;-73
2022/03/05 09:53:21;;;;;;;;;;;5.30;72.30;;;;;;8404360;28;19931;-73
2022/03/05 09:57:23;;;;;;;;;;;5.70;73.30;;;;;;8380884;28;19976;-73
2022/03/05 10:01:24;;;;;;;;;;;6.10;74.30;;;;;;8406361;28;19927;-73
2022/03/05 10:05:27;;;;;;;;;;;6.60;76.30;;;;;;8401866;28;20032;-73
2022/03/05 10:09:28;;;;;;;;;;;7.10;78.90;;;;;;8403605;28;20299;-73
2022/03/05 10:13:31;;;;;;;;;;;7.60;82.80;;;;;;8402363;28;19931;-73
2022/03/05 10:17:45;;;;;;;;;;;8.10;86.10;;;;;;8405915;28;19924;-73
2022/03/05 10:22:00;;;;;;;;;;;8.50;89.70;;;;;;8403993;28;19939;-73
2022/03/05 10:26:03;;;;;;;;;;;9.00;91.00;;;;;;8382551;28;20272;-73
2022/03/05 10:30:05;;;;;;;;;;;9.30;90.60;;;;;;8412252;28;19982;-73
2022/03/05 10:34:07;;;;;;;;;;;9.40;90.20;;;;;;8413799;28;19928;-73
2022/03/05 10:38:09;;;;;;;;;;;9.70;90.90;;;;;;8389563;28;19928;-73
2022/03/05 10:42:25;;;;;;;;;;;10.20;92.00;;;;;;8416559;28;19946;-73
2022/03/05 10:46:36;;;;;;;;;;;10.60;93.20;;;;;;8408862;28;19924;-73
2022/03/05 10:50:38;;;;;;;;;;;10.90;92.90;;;;;;8405631;28;20023;-73
2022/03/05 10:54:41;;;;;;;;;;;11.20;93.60;;;;;;8400430;28;19932;-72
2022/03/05 10:58:43;;;;;;;;;;;11.70;95.10;;;;;;8397111;28;19936;-72
2022/03/05 11:02:45;;;;;;;;;;;12.30;97.00;;;;;;8413737;28;19935;-73
2022/03/05 11:06:47;;;;;;;;;;;12.80;98.50;;;;;;8411347;28;19943;-73
2022/03/05 11:11:20;;;;;;;;;;;13.20;99.50;;;;;;8385868;28;19924;-73
2022/03/05 11:15:31;;;;;;;;;;;13.60;99.90;;;;;;8399379;28;19931;-73
2022/03/05 11:19:33;;;;;;;;;;;13.90;99.90;;;;;;8400151;28;19977;-73
2022/03/05 11:23:36;;;;;;;;;;;14.30;99.90;;;;;;8419124;28;19932;-73
2022/03/05 11:27:38;;;;;;;;;;;14.50;99.90;;;;;;8419732;28;19936;-73
2022/03/05 11:31:40;;;;;;;;;;;14.80;99.90;;;;;;8415008;28;19923;-73
2022/03/05 11:35:44;;;;;;;;;;;15.00;99.90;;;;;;8411451;28;20364;-73
2022/03/05 11:39:46;;;;;;;;;;;15.30;99.10;;;;;;8403671;28;19932;-73
2022/03/05 11:43:48;;;;;;;;;;;15.40;99.30;;;;;;8414366;28;19924;-73
2022/03/05 11:47:50;;;;;;;;;;;15.70;99.10;;;;;;8409441;28;19925;-73
2022/03/05 11:51:58;;;;;;;;;;;15.90;99.10;;;;;;8410185;28;19947;-73
2022/03/05 11:56:19;;;;;;;;;;;16.00;98.70;;;;;;8407324;28;20287;-73
2022/03/05 12:00:24;;;;;;;;;;;16.10;97.90;;;;;;8389109;28;19924;-73
2022/03/05 12:04:28;;;;;;;;;;;16.40;97.20;;;;;;8414766;28;19932;-73
2022/03/05 12:08:29;;;;;;;;;;;16.70;96.10;;;;;;8414417;28;20002;-74
2022/03/05 12:12:50;;;;;;;;;;;17.00;95.90;;;;;;8380067;28;19928;-73
2022/03/05 12:16:52;;;;;;;;;;;17.50;95.60;;;;;;8395826;28;19939;-73
2022/03/05 12:20:53;;;;;;;;;;;17.90;95.40;;;;;;8388327;28;19924;-73
2022/03/05 12:24:55;;;;;;;;;;;18.20;94.60;;;;;;8407569;28;19932;-74
2022/03/05 12:28:56;;;;;;;;;;;18.30;94.00;;;;;;8405165;28;19924;-73
2022/03/05 12:32:59;;;;;;;;;;;18.50;93.90;;;;;;8406105;28;19931;-73
2022/03/05 12:37:01;;;;;;;;;;;18.70;93.80;;;;;;8408116;28;20368;-73
2022/03/05 12:41:03;;;;;;;;;;;18.90;92.80;;;;;;8400358;28;19932;-73
2022/03/05 12:45:05;;;;;;;;;;;18.90;91.50;;;;;;8401928;28;20516;-73
2022/03/05 12:49:07;;;;;;;;;;;19.10;90.50;;;;;;8407383;28;20311;-73
2022/03/05 12:53:09;;;;;;;;;;;19.20;89.50;;;;;;8406223;28;20386;-74
2022/03/05 12:57:12;;;;;;;;;;;19.40;89.20;;;;;;8405342;28;19931;-74
2022/03/05 13:01:14;;;;;;;;;;;19.60;88.50;;;;;;8381359;28;20383;-74
2022/03/05 13:05:16;;;;;;;;;;;19.80;87.00;;;;;;8407692;28;19929;-74
2022/03/05 13:09:18;;;;;;;;;;;19.60;84.60;;;;;;8418994;28;19924;-73
2022/03/05 13:13:33;;;;;;;;;;;19.00;80.00;;;;;;8396033;28;19932;-73
2022/03/05 13:17:34;;;;;;;;;;;18.30;75.10;;;;;;8381549;28;19925;-73
2022/03/05 13:21:37;;;;;;;;;;;17.60;70.40;;;;;;8392014;28;19939;-73
2022/03/05 13:25:40;;;;;;;;;;;17.00;67.60;;;;;;8409057;28;20015;-73
2022/03/05 13:29:42;;;;;;;;;;;16.60;65.90;;;;;;8411471;28;19924;-73
2022/03/05 13:33:46;;;;;;;;;;;16.20;64.00;;;;;;8413392;28;19925;-73
2022/03/05 13:37:47;;;;;;;;;;;15.90;63.10;;;;;;8391563;28;19925;-72
2022/03/05 13:41:51;;;;;;;;;;;15.60;62.30;;;;;;8412011;28;19931;-73
2022/03/05 13:45:54;;;;;;;;;;;15.40;61.90;;;;;;8410644;28;20207;-73
2022/03/05 13:50:00;;;;;;;;;;;15.20;61.60;;;;;;8397304;28;19928;-73
2022/03/05 13:54:03;;;;;;;;;;;15.20;61.60;;;;;;8404204;28;19931;-73
2022/03/05 13:58:04;;;;;;;;;;;15.10;61.40;;;;;;8411100;28;19924;-74
2022/03/05 14:02:06;;;;;;;;;;;15.10;61.30;;;;;;8410087;28;20008;-73
2022/03/05 14:06:11;;;;;;;;;;;15.20;60.90;;;;;;8414218;28;19928;-73
2022/03/05 14:10:14;;;;;;;;;;;15.20;60.70;;;;;;8406427;28;19924;-73
2022/03/05 14:14:18;;;;;;;;;;;15.20;60.40;;;;;;8389754;28;19924;-73
2022/03/05 14:18:19;;;;;;;;;;;15.20;60.40;;;;;;8414034;28;20295;-73
2022/03/05 14:22:22;;;;;;;;;;;15.20;60.50;;;;;;8405981;28;20388;-73
2022/03/05 14:26:31;;;;;;;;;;;15.10;60.90;;;;;;8408725;28;19940;-73
2022/03/05 14:30:33;;;;;;;;;;;15.20;61.60;;;;;;8410713;28;19935;-73
2022/03/05 14:34:35;;;;;;;;;;;15.50;62.10;;;;;;8402188;28;19925;-73
2022/03/05 14:38:37;;;;;;;;;;;16.10;63.20;;;;;;8411062;28;19958;-73
2022/03/05 14:42:39;;;;;;;;;;;17.20;67.00;;;;;;8396260;28;20418;-73
2022/03/05 14:46:41;;;;;;;;;;;18.30;69.00;;;;;;8412846;28;20387;-73
2022/03/05 14:50:43;;;;;;;;;;;19.30;71.20;;;;;;8407692;28;19928;-74
2022/03/05 14:54:44;;;;;;;;;;;20.00;72.80;;;;;;8404413;28;20360;-75
2022/03/05 14:58:46;;;;;;;;;;;20.40;72.50;;;;;;8406497;28;20327;-74
2022/03/05 15:02:48;;;;;;;;;;;20.60;71.40;;;;;;8391172;28;19924;-75
2022/03/05 15:06:50;;;;;;;;;;;20.70;70.30;;;;;;8393070;28;19931;-74
2022/03/05 15:10:52;;;;;;;;;;;20.80;69.30;;;;;;8414442;28;19924;-75
2022/03/05 15:14:54;;;;;;;;;;;21.00;68.50;;;;;;8384831;28;20284;-74
2022/03/05 15:18:56;;;;;;;;;;;21.10;68.90;;;;;;8407642;28;19936;-75
2022/03/05 15:22:58;;;;;;;;;;;21.10;67.80;;;;;;8414720;28;19924;-75
2022/03/05 15:26:59;;;;;;;;;;;20.90;66.20;;;;;;8410400;28;19925;-74
2022/03/05 15:31:02;;;;;;;;;;;20.50;63.80;;;;;;8400430;28;19931;-74
2022/03/05 15:35:04;;;;;;;;;;;20.20;61.90;;;;;;8402625;28;19924;-74
2022/03/05 15:39:05;;;;;;;;;;;19.70;61.90;;;;;;8394389;28;19931;-74
2022/03/05 15:43:07;;;;;;;;;;;19.40;60.60;;;;;;8409938;28;19963;-74
2022/03/05 15:47:09;;;;;;;;;;;19.10;59.50;;;;;;8399048;28;19932;-74
2022/03/05 15:51:11;;;;;;;;;;;18.70;59.00;;;;;;8406035;28;20291;-74
2022/03/05 15:55:13;;;;;;;;;;;18.40;58.90;;;;;;8409506;28;19932;-74
2022/03/05 15:59:17;;;;;;;;;;;18.20;58.40;;;;;;8413270;28;19924;-73
2022/03/05 16:03:19;;;;;;;;;;;18.10;57.90;;;;;;8408466;28;19928;-73
2022/03/05 16:07:21;;;;;;;;;;;18.20;58.00;;;;;;8408434;28;19974;-74
2022/03/05 16:11:23;;;;;;;;;;;18.00;56.60;;;;;;8411765;28;20000;-74
2022/03/05 16:15:25;;;;;;;;;;;17.50;56.00;;;;;;8405545;28;19935;-74
2022/03/05 16:19:26;;;;;;;;;;;16.90;55.70;;;;;;8412815;28;20303;-74
2022/03/05 16:23:28;;;;;;;;;;;16.50;55.60;;;;;;8411435;28;19924;-74
2022/03/05 16:27:30;;;;;;;;;;;16.10;54.90;;;;;;8409045;28;19929;-74
2022/03/05 16:31:34;;;;;;;;;;;15.80;54.80;;;;;;8406151;28;19924;-74
2022/03/05 16:35:35;;;;;;;;;;;15.70;54.80;;;;;;8408494;28;20604;-74
2022/03/05 16:39:37;;;;;;;;;;;15.50;54.60;;;;;;8406918;28;19955;-74
2022/03/05 16:43:39;;;;;;;;;;;15.30;54.50;;;;;;8413624;28;19933;-75
2022/03/05 16:47:41;;;;;;;;;;;15.00;54.10;;;;;;8408133;28;20182;-74
2022/03/05 16:51:43;;;;;;;;;;;14.60;53.80;;;;;;8378224;28;20565;-74
2022/03/05 16:55:44;;;;;;;;;;;14.20;53.60;;;;;;8396275;28;20328;-74
2022/03/05 16:59:46;;;;;;;;;;;13.80;53.50;;;;;;8369550;28;19933;-74
2022/03/05 17:03:48;;;;;;;;;;;13.40;53.40;;;;;;8392450;28;19932;-73
2022/03/05 17:07:49;;;;;;;;;;;13.00;53.30;;;;;;8387869;28;19939;-73
2022/03/05 17:11:51;;;;;;;;;;;12.60;53.20;;;;;;8384204;28;19928;-74
2022/03/05 17:15:53;;;;;;;;;;;12.30;53.20;;;;;;8393887;28;20484;-74
2022/03/05 17:19:55;;;;;;;;;;;12.00;53.10;;;;;;8391349;28;19924;-74
2022/03/05 17:23:56;;;;;;;;;;;11.70;53.20;;;;;;8395623;28;19935;-74
2022/03/05 17:27:58;;;;;;;;;;;11.50;53.20;;;;;;8389244;28;19979;-74
2022/03/05 17:31:59;;;;;;;;;;;11.30;53.20;;;;;;8370897;28;19990;-73
2022/03/05 17:36:01;;;;;;;;;;;11.10;53.50;;;;;;8364819;28;20714;-74
2022/03/05 17:40:02;;;;;;;;;;;10.80;53.60;;;;;;8364030;28;20234;-74
2022/03/05 17:44:04;;;;;;;;;;;10.70;53.70;;;;;;8381050;28;19932;-74
2022/03/05 17:48:06;;;;;;;;;;;10.50;54.00;;;;;;8370167;28;19972;-75
2022/03/05 17:52:07;;;;;;;;;;;10.30;53.90;;;;;;8390059;28;19971;-74
2022/03/05 17:56:09;;;;;;;;;;;10.10;54.20;;;;;;8383712;28;20257;-74
2022/03/05 18:00:12;;;;;;;;;;;10.00;54.40;;;;;;8367190;28;19925;-74
2022/03/05 18:04:15;;;;;;;;;;;9.80;55.40;;;;;;8380564;28;19924;-73
2022/03/05 18:08:16;;;;;;;;;;;9.60;55.50;;;;;;8390633;28;19936;-73
2022/03/05 18:12:18;;;;;;;;;;;9.40;55.70;;;;;;8367656;28;19932;-74
2022/03/05 18:16:20;;;;;;;;;;;9.30;56.00;;;;;;8390020;28;19936;-74
2022/03/05 18:20:22;;;;;;;;;;;9.20;56.00;;;;;;8388285;28;20047;-73
2022/03/05 18:24:24;;;;;;;;;;;9.10;56.00;;;;;;8389849;28;19928;-74
2022/03/05 18:28:26;;;;;;;;;;;9.00;55.80;;;;;;8390913;28;19939;-73
2022/03/05 18:32:28;;;;;;;;;;;9.00;55.40;;;;;;8385097;28;20375;-74
2022/03/05 18:36:30;;;;;;;;;;;8.90;55.40;;;;;;8390394;28;19925;-74
2022/03/05 18:40:32;;;;;;;;;;;8.80;55.50;;;;;;8391016;28;19975;-74
2022/03/05 18:44:33;;;;;;;;;;;8.70;55.50;;;;;;8391149;28;19932;-74
2022/03/05 18:48:35;;;;;;;;;;;8.60;55.80;;;;;;8393276;28;19928;-74
2022/03/05 18:52:38;;;;;;;;;;;8.50;56.10;;;;;;8378121;28;19931;-74
2022/03/05 18:56:39;;;;;;;;;;;8.40;56.20;;;;;;8396299;28;19928;-73
2022/03/05 19:00:41;;;;;;;;;;;8.30;55.80;;;;;;8397816;28;19986;-74
2022/03/05 19:04:43;;;;;;;;;;;8.10;55.50;;;;;;8396391;28;20017;-73
2022/03/05 19:08:47;;;;;;;;;;;8.00;55.90;;;;;;8377114;28;19928;-73
2022/03/05 19:12:49;;;;;;;;;;;7.90;56.00;;;;;;8393827;28;19932;-74
2022/03/05 19:16:51;;;;;;;;;;;7.90;56.20;;;;;;8396957;28;20288;-74
2022/03/05 19:20:52;;;;;;;;;;;7.90;56.20;;;;;;8374475;28;20341;-73
2022/03/05 19:24:54;;;;;;;;;;;7.80;56.20;;;;;;8391816;28;20015;-73
2022/03/05 19:28:55;;;;;;;;;;;7.80;56.10;;;;;;8396475;28;20261;-73
2022/03/05 19:32:57;;;;;;;;;;;7.70;56.10;;;;;;8394777;28;19932;-73
2022/03/05 19:36:59;;;;;;;;;;;7.60;56.30;;;;;;8396447;28;19970;-74
2022/03/05 19:41:01;;;;;;;;;;;7.50;56.50;;;;;;8387507;28;20058;-73
2022/03/05 19:45:04;;;;;;;;;;;7.40;56.60;;;;;;8388276;28;19939;-73
2022/03/05 19:49:05;;;;;;;;;;;7.40;56.80;;;;;;8378719;28;19933;-74
2022/03/05 19:53:07;;;;;;;;;;;7.30;57.30;;;;;;8393107;28;19928;-73
2022/03/05 19:57:09;;;;;;;;;;;7.20;57.50;;;;;;8374993;28;19928;-74
2022/03/05 20:01:11;;;;;;;;;;;7.10;57.60;;;;;;8396989;28;19924;-73
2022/03/05 20:05:13;;;;;;;;;;;7.00;57.70;;;;;;8394892;28;20380;-73
2022/03/05 20:09:15;;;;;;;;;;;7.00;57.90;;;;;;8393316;28;20251;-73
2022/03/05 20:13:17;;;;;;;;;;;6.90;58.10;;;;;;8396714;28;20283;-73
2022/03/05 20:17:18;;;;;;;;;;;6.80;58.30;;;;;;8390508;28;20300;-74
2022/03/05 20:21:20;;;;;;;;;;;6.70;58.50;;;;;;8400099;28;19928;-74
2022/03/05 20:25:22;;;;;;;;;;;6.60;58.70;;;;;;8392551;28;19951;-74
2022/03/05 20:29:23;;;;;;;;;;;6.40;58.80;;;;;;8390375;28;19994;-74
2022/03/05 20:33:25;;;;;;;;;;;6.30;59.00;;;;;;8385428;28;19939;-74
2022/03/05 20:37:31;;;;;;;;;;;6.20;59.30;;;;;;8390053;28;19928;-74
2022/03/05 20:41:33;;;;;;;;;;;6.10;59.50;;;;;;8388164;28;19939;-74
2022/03/05 20:45:35;;;;;;;;;;;6.10;59.70;;;;;;8392363;28;19931;-74
2022/03/05 20:49:36;;;;;;;;;;;6.00;59.70;;;;;;8370049;28;20386;-73
2022/03/05 20:53:38;;;;;;;;;;;6.00;59.80;;;;;;8376269;28;19928;-73
2022/03/05 20:57:40;;;;;;;;;;;5.90;59.80;;;;;;8376473;28;19931;-73
2022/03/05 21:01:41;;;;;;;;;;;5.80;59.70;;;;;;8396059;28;20291;-74
2022/03/05 21:05:43;;;;;;;;;;;5.80;59.90;;;;;;8372638;28;20380;-74
2022/03/05 21:09:45;;;;;;;;;;;5.70;59.90;;;;;;8392676;28;20125;-73
2022/03/05 21:13:47;;;;;;;;;;;5.70;60.00;;;;;;8377502;28;19929;-74
2022/03/05 21:17:50;;;;;;;;;;;5.60;60.40;;;;;;8389685;28;19935;-74
2022/03/05 21:21:52;;;;;;;;;;;5.50;60.60;;;;;;8394967;28;20296;-73
2022/03/05 21:25:54;;;;;;;;;;;5.40;60.60;;;;;;8392094;28;19939;-74
2022/03/05 21:29:55;;;;;;;;;;;5.30;60.90;;;;;;8373462;28;19925;-74
2022/03/05 21:33:57;;;;;;;;;;;5.20;61.10;;;;;;8370136;28;19931;-73
2022/03/05 21:37:59;;;;;;;;;;;5.10;61.40;;;;;;8371690;28;20332;-74
2022/03/05 21:42:00;;;;;;;;;;;5.00;61.40;;;;;;8383028;28;20312;-73
2022/03/05 21:46:02;;;;;;;;;;;5.00;61.70;;;;;;8383530;28;19932;-74
2022/03/05 21:50:05;;;;;;;;;;;4.90;61.80;;;;;;8382180;28;19964;-73
2022/03/05 21:54:11;;;;;;;;;;;4.90;61.80;;;;;;8380249;28;20333;-74
2022/03/05 21:58:13;;;;;;;;;;;4.80;61.80;;;;;;8383587;28;20065;-74
2022/03/05 22:02:15;;;;;;;;;;;4.70;62.20;;;;;;8376045;28;19951;-74
2022/03/05 22:06:16;;;;;;;;;;;4.60;62.20;;;;;;8402305;28;20677;-73
2022/03/05 22:10:18;;;;;;;;;;;4.50;62.20;;;;;;8395421;28;20295;-73
2022/03/05 22:14:20;;;;;;;;;;;4.50;61.90;;;;;;8396630;28;19971;-73
2022/03/05 22:18:21;;;;;;;;;;;4.40;62.10;;;;;;8399576;28;20291;-73
2022/03/05 22:22:24;;;;;;;;;;;4.40;62.20;;;;;;8404904;28;19932;-74
2022/03/05 22:26:25;;;;;;;;;;;4.30;62.20;;;;;;8416750;28;19933;-74
2022/03/05 22:30:27;;;;;;;;;;;4.20;62.20;;;;;;8395944;28;19924;-74
2022/03/05 22:34:29;;;;;;;;;;;4.10;62.40;;;;;;8388244;28;19932;-73
2022/03/05 22:38:31;;;;;;;;;;;4.10;62.30;;;;;;8405482;28;19946;-73
2022/03/05 22:42:34;;;;;;;;;;;4.00;62.30;;;;;;8406963;28;19963;-74
2022/03/05 22:46:35;;;;;;;;;;;4.10;62.20;;;;;;8412465;28;19978;-74
2022/03/05 22:50:38;;;;;;;;;;;4.10;61.90;;;;;;8383665;28;20031;-73
2022/03/05 22:54:40;;;;;;;;;;;4.10;61.70;;;;;;8408390;28;19924;-74
2022/03/05 22:58:41;;;;;;;;;;;4.00;62.80;;;;;;8403750;28;19931;-74
2022/03/05 23:11:24;;;;;;;;;;;3.80;61.90;;;;;;8406961;28;19928;-74
2022/03/05 23:15:25;;;;;;;;;;;3.80;62.30;;;;;;8398961;28;19931;-73
2022/03/05 23:19:28;;;;;;;;;;;3.70;62.50;;;;;;8399700;28;19936;-73
2022/03/05 23:23:29;;;;;;;;;;;3.60;62.50;;;;;;8411995;28;19982;-73
2022/03/05 23:27:31;;;;;;;;;;;3.50;63.00;;;;;;8411482;28;19932;-73
2022/03/05 23:31:33;;;;;;;;;;;3.50;63.20;;;;;;8402994;28;19932;-74
2022/03/05 23:35:34;;;;;;;;;;;3.40;63.30;;;;;;8408753;28;19924;-74
2022/03/05 23:39:36;;;;;;;;;;;3.40;63.60;;;;;;8406109;28;19933;-73
2022/03/05 23:43:38;;;;;;;;;;;3.30;64.10;;;;;;8398793;28;19936;-74
2022/03/05 23:47:40;;;;;;;;;;;3.20;64.30;;;;;;8395661;28;20380;-74